Time;durP1;ratioP1;P1;durP2;ratioP2;P2;SDS_P1;SDS_P2;PMS_P1;PMS_P2;Temp;Humidity;BMP_temperature;BMP_pressure;BME280_temperature;BME280_humidity;BME280_pressure;Samples;Min_cycle;Max_cycle;Signal;HPM_P1;HPM_P2
2022/01/17 00:02:40;;;;;;;18.60;2.78;;;;;;;5.21;100.00;102029.59;10213407;28;20660;-63
2022/01/17 00:07:37;;;;;;;16.95;2.47;;;;;;;5.22;100.00;102028.53;10209710;28;20428;-63
2022/01/17 00:12:37;;;;;;;23.40;3.25;;;;;;;5.15;100.00;102036.03;10205639;28;20058;-62
2022/01/17 00:17:38;;;;;;;23.45;3.45;;;;;;;5.18;100.00;102024.69;10204290;28;20081;-63
2022/01/17 00:22:35;;;;;;;15.63;2.88;;;;;;;5.19;100.00;102007.34;10179456;28;20050;-64
2022/01/17 00:27:32;;;;;;;18.13;2.88;;;;;;;5.23;100.00;101994.94;10208201;28;20058;-64
2022/01/17 00:32:30;;;;;;;16.63;2.25;;;;;;;5.25;100.00;101992.78;10181984;28;20506;-65
2022/01/17 00:37:27;;;;;;;16.20;2.47;;;;;;;5.29;100.00;102001.22;10205188;28;20046;-62
2022/01/17 00:42:23;;;;;;;16.77;2.67;;;;;;;5.30;100.00;102011.03;10190624;28;20129;-64
2022/01/17 00:47:25;;;;;;;23.42;3.17;;;;;;;5.29;100.00;101990.38;10207577;28;20125;-63
2022/01/17 00:52:22;;;;;;;14.32;2.38;;;;;;;5.33;100.00;101985.28;10190417;28;20057;-65
2022/01/17 00:57:23;;;;;;;15.88;2.25;;;;;;;5.39;100.00;102008.69;10231760;28;20418;-63
2022/01/17 01:02:20;;;;;;;19.67;2.53;;;;;;;5.41;100.00;102012.00;10177636;28;20707;-63
2022/01/17 01:07:17;;;;;;;10.50;1.60;;;;;;;5.41;100.00;102014.69;10210246;28;20092;-65
2022/01/17 01:12:14;;;;;;;21.65;3.50;;;;;;;5.48;100.00;102001.75;10199719;28;20133;-64
2022/01/17 01:17:29;;;;;;;11.75;1.52;;;;;;;5.44;100.00;101995.19;10215730;28;20053;-62
2022/01/17 01:27:55;;;;;;;17.60;2.78;;;;;;;5.49;100.00;102008.81;10226682;28;20514;-64
2022/01/17 01:32:55;;;;;;;18.88;2.10;;;;;;;5.57;100.00;101988.56;10199805;28;20111;-64
2022/01/17 01:37:52;;;;;;;11.27;1.85;;;;;;;5.59;100.00;101989.97;10204582;28;20038;-63
2022/01/17 01:42:51;;;;;;;18.42;3.05;;;;;;;5.60;100.00;101988.88;10167638;28;20093;-62
2022/01/17 01:47:48;;;;;;;15.80;2.03;;;;;;;5.58;100.00;101963.91;10204371;28;20085;-62
2022/01/17 01:52:48;;;;;;;13.90;2.05;;;;;;;5.57;100.00;101973.13;10207802;28;20050;-62
2022/01/17 01:57:44;;;;;;;18.20;2.50;;;;;;;5.61;100.00;101985.09;10224401;28;20500;-64
2022/01/17 02:07:52;;;;;;;14.02;2.47;;;;;;;5.66;100.00;101968.88;10749966;23;20044;-72
2022/01/17 02:12:49;;;;;;;22.23;4.85;;;;;;;5.64;100.00;101968.31;10075040;28;20567;-72
2022/01/17 02:17:53;;;;;;;22.63;2.88;;;;;;;5.70;100.00;101982.75;10048658;28;20097;-71
2022/01/17 02:22:51;;;;;;;19.75;2.83;;;;;;;5.70;100.00;101978.13;10040662;29;20052;-71
2022/01/17 02:27:48;;;;;;;15.45;2.15;;;;;;;5.68;100.00;101960.47;10036578;28;20103;-70
2022/01/17 02:32:44;;;;;;;24.95;2.72;;;;;;;5.68;100.00;101974.84;10076742;28;20134;-70
2022/01/17 02:37:41;;;;;;;13.07;2.35;;;;;;;5.64;100.00;101973.75;10025902;28;20052;-70
2022/01/17 02:42:37;;;;;;;14.57;1.92;;;;;;;5.65;100.00;101959.09;10031215;29;20067;-70
2022/01/17 02:47:34;;;;;;;16.73;2.17;;;;;;;5.66;100.00;101947.19;10030552;29;20075;-70
2022/01/17 02:52:30;;;;;;;19.08;2.30;;;;;;;5.68;100.00;101960.47;10074784;28;20047;-71
2022/01/17 02:57:28;;;;;;;10.45;2.42;;;;;;;5.68;100.00;101936.88;10037743;28;20653;-71
2022/01/17 03:02:24;;;;;;;17.13;2.88;;;;;;;5.73;100.00;101959.72;10049075;29;20510;-71
2022/01/17 03:07:21;;;;;;;11.77;2.25;;;;;;;5.70;100.00;101940.16;10038356;28;20056;-70
2022/01/17 03:12:18;;;;;;;22.50;3.20;;;;;;;5.74;100.00;101917.94;10044129;28;20094;-72
2022/01/17 03:17:15;;;;;;;23.27;3.45;;;;;;;5.77;100.00;101912.00;10032210;28;20675;-72
2022/01/17 03:22:12;;;;;;;12.68;2.22;;;;;;;5.78;100.00;101916.34;10067775;28;20059;-72
2022/01/17 03:27:08;;;;;;;19.50;2.40;;;;;;;5.80;100.00;101906.03;10037213;28;20143;-72
2022/01/17 03:32:05;;;;;;;19.83;3.60;;;;;;;5.83;100.00;101908.28;10034228;28;20048;-72
2022/01/17 03:37:02;;;;;;;16.38;2.30;;;;;;;5.81;100.00;101929.41;10018808;28;20048;-71
2022/01/17 03:41:58;;;;;;;6.88;1.77;;;;;;;5.77;100.00;101937.22;10042503;29;20512;-70
2022/01/17 03:46:55;;;;;;;16.80;3.17;;;;;;;5.81;100.00;101924.78;10041518;28;20051;-70
2022/01/17 03:51:52;;;;;;;22.05;3.58;;;;;;;5.83;100.00;101938.13;10044311;29;20427;-72
2022/01/17 03:56:48;;;;;;;17.27;2.72;;;;;;;5.79;100.00;101912.56;10036680;28;20512;-72
2022/01/17 04:01:45;;;;;;;18.58;2.35;;;;;;;5.86;100.00;101908.56;10033536;29;20085;-71
2022/01/17 04:06:41;;;;;;;19.90;2.78;;;;;;;5.83;100.00;101910.97;10023515;29;20514;-72
2022/01/17 04:11:38;;;;;;;21.08;2.50;;;;;;;5.86;100.00;101915.88;10047225;28;20044;-72
2022/01/17 04:16:34;;;;;;;25.67;3.08;;;;;;;5.84;100.00;101928.88;10040779;28;20048;-71
2022/01/17 04:21:34;;;;;;;17.48;2.28;;;;;;;5.86;100.00;101911.28;10033247;28;20070;-72
2022/01/17 04:26:31;;;;;;;21.23;2.55;;;;;;;5.89;100.00;101909.94;10042822;28;20048;-71
2022/01/17 04:31:28;;;;;;;19.75;2.30;;;;;;;5.89;100.00;101905.34;10035907;28;20452;-71
2022/01/17 04:36:25;;;;;;;19.70;3.28;;;;;;;5.93;100.00;101900.22;10056737;28;20498;-71
2022/01/17 04:41:28;;;;;;;17.45;3.65;;;;;;;5.93;100.00;101937.41;10054590;28;20459;-71
2022/01/17 04:46:24;;;;;;;;;;;;;;;5.94;100.00;101925.44;10040127;28;20070;-72
2022/01/17 04:51:21;;;;;;;16.80;2.97;;;;;;;5.93;100.00;101938.22;10055641;28;20402;-72
2022/01/17 04:56:17;;;;;;;20.77;2.70;;;;;;;5.94;100.00;101918.19;10054979;28;20565;-71
2022/01/17 05:01:13;;;;;;;20.63;2.88;;;;;;;5.98;100.00;101889.41;10030226;29;20139;-71
2022/01/17 05:06:10;;;;;;;21.40;3.80;;;;;;;5.95;100.00;101884.50;10040181;28;20091;-71
2022/01/17 05:11:07;;;;;;;26.80;3.88;;;;;;;6.01;100.00;101882.66;10030557;29;20086;-71
2022/01/17 05:16:11;;;;;;;16.38;2.50;;;;;;;6.03;100.00;101884.03;10018117;29;20467;-71
2022/01/17 05:21:08;;;;;;;13.00;2.00;;;;;;;6.05;100.00;101892.72;10014369;29;20502;-71
2022/01/17 05:26:04;;;;;;;18.60;2.78;;;;;;;6.10;100.00;101890.09;10011694;29;20067;-71
2022/01/17 05:31:01;;;;;;;27.92;4.13;;;;;;;6.16;100.00;101914.56;10023828;29;20041;-71
2022/01/17 05:35:58;;;;;;;23.60;3.25;;;;;;;6.19;100.00;101903.16;10023806;29;20055;-71
2022/01/17 05:40:54;;;;;;;18.83;2.53;;;;;;;6.18;100.00;101899.66;10043134;28;20056;-72
2022/01/17 05:45:54;;;;;;;15.20;2.67;;;;;;;6.17;100.00;101906.13;10035494;28;20079;-72
2022/01/17 05:50:51;;;;;;;26.60;3.03;;;;;;;6.15;100.00;101907.47;10040711;29;20056;-72
2022/01/17 05:55:47;;;;;;;17.92;3.45;;;;;;;6.15;100.00;101896.63;10049620;28;20059;-71
2022/01/17 06:00:44;;;;;;;21.17;3.08;;;;;;;6.21;100.00;101866.53;10027338;29;20052;-68
2022/01/17 06:05:41;;;;;;;32.38;3.40;;;;;;;6.18;100.00;101906.97;10030083;29;20060;-70
2022/01/17 06:10:38;;;;;;;18.15;2.65;;;;;;;6.17;100.00;101875.44;10022939;29;20052;-70
2022/01/17 06:15:34;;;;;;;21.77;2.88;;;;;;;6.23;100.00;101917.88;10010453;29;20415;-70
2022/01/17 06:20:31;;;;;;;24.35;2.88;;;;;;;6.31;100.00;101911.94;10012901;29;20637;-71
2022/01/17 06:25:27;;;;;;;18.95;3.63;;;;;;;6.36;100.00;101871.28;10020218;28;20070;-72
2022/01/17 06:30:24;;;;;;;29.05;4.75;;;;;;;6.40;100.00;101888.66;10047252;28;20047;-71
2022/01/17 06:35:21;;;;;;;36.97;4.93;;;;;;;6.35;100.00;101877.75;10019167;28;20525;-72
2022/01/17 06:40:18;;;;;;;27.05;3.65;;;;;;;6.32;100.00;101881.00;10032074;29;20052;-72
2022/01/17 06:45:15;;;;;;;29.52;4.40;;;;;;;6.38;100.00;101890.00;10036982;28;20052;-72
2022/01/17 06:50:13;;;;;;;23.95;3.45;;;;;;;6.36;100.00;101935.63;10062651;28;20051;-72
2022/01/17 06:55:10;;;;;;;24.85;3.22;;;;;;;6.24;100.00;101960.25;10042137;28;20051;-72
2022/01/17 07:00:09;;;;;;;29.58;3.72;;;;;;;6.18;100.00;101955.88;10056818;29;20051;-72
2022/01/17 07:05:06;;;;;;;29.17;4.70;;;;;;;6.22;100.00;102022.16;10035703;28;20545;-72
2022/01/17 07:10:04;;;;;;;27.67;3.70;;;;;;;6.23;100.00;101958.63;10045178;28;20083;-72
2022/01/17 07:15:01;;;;;;;31.73;5.55;;;;;;;6.21;100.00;101912.69;10013976;29;20088;-72
2022/01/17 07:19:57;;;;;;;20.00;2.78;;;;;;;6.20;100.00;101916.50;10009313;29;20147;-72
2022/01/17 07:24:56;;;;;;;36.80;5.57;;;;;;;6.22;100.00;101929.81;10018681;29;20079;-73
2022/01/17 07:29:52;;;;;;;34.85;4.82;;;;;;;6.24;100.00;101916.78;10029325;28;20086;-73
2022/01/17 07:34:49;;;;;;;31.63;3.85;;;;;;;6.23;100.00;101939.59;10014627;29;20051;-74
2022/01/17 07:39:45;;;;;;;17.08;3.95;;;;;;;6.25;100.00;101924.69;10036470;28;20110;-73
2022/01/17 07:44:43;;;;;;;40.92;7.90;;;;;;;6.32;100.00;101935.34;10036514;29;20572;-69
2022/01/17 07:49:42;;;;;;;30.58;4.38;;;;;;;6.32;100.00;101946.19;10032077;28;20098;-68
2022/01/17 07:54:58;;;;;;;32.13;4.35;;;;;;;6.30;100.00;101932.06;10011087;29;20131;-70
2022/01/17 07:59:55;;;;;;;27.75;4.13;;;;;;;6.27;100.00;101943.44;10047944;28;20509;-70
2022/01/17 08:04:51;;;;;;;27.88;3.55;;;;;;;6.30;100.00;101983.66;10072815;28;20131;-70
2022/01/17 08:09:48;;;;;;;29.27;3.35;;;;;;;6.30;100.00;101965.47;10045759;29;20493;-70
2022/01/17 08:14:44;;;;;;;29.85;3.90;;;;;;;6.33;100.00;101985.84;10065378;28;20052;-70
2022/01/17 08:19:41;;;;;;;30.02;4.75;;;;;;;6.32;100.00;102006.78;10034966;29;20098;-70
2022/01/17 08:24:37;;;;;;;29.10;4.50;;;;;;;6.32;100.00;101984.22;10055660;28;20098;-70
2022/01/17 08:29:34;;;;;;;26.13;4.75;;;;;;;6.31;100.00;101975.28;10052285;28;20108;-69
2022/01/17 08:34:32;;;;;;;39.42;5.32;;;;;;;6.34;100.00;101982.09;10019994;29;20793;-70
2022/01/17 08:39:28;;;;;;;37.75;4.45;;;;;;;6.41;100.00;102000.88;10042584;28;20055;-70
2022/01/17 08:44:25;;;;;;;28.15;4.32;;;;;;;6.41;100.00;101977.25;10048680;29;20138;-70
2022/01/17 08:49:21;;;;;;;42.95;6.15;;;;;;;6.46;100.00;101985.44;10059051;28;20051;-70
2022/01/17 08:54:18;;;;;;;21.25;3.03;;;;;;;6.52;100.00;101999.88;10074868;28;20081;-70
2022/01/17 08:59:14;;;;;;;29.73;4.90;;;;;;;6.58;100.00;102008.91;10024427;28;20064;-70
2022/01/17 09:04:11;;;;;;;25.65;4.57;;;;;;;6.60;100.00;102025.78;10071500;28;20044;-70
2022/01/17 09:09:07;;;;;;;23.58;4.07;;;;;;;6.58;100.00;102031.47;10041929;28;20111;-70
2022/01/17 09:14:04;;;;;;;36.10;4.95;;;;;;;6.61;100.00;102021.97;10008431;29;20050;-70
2022/01/17 09:19:02;;;;;;;33.25;4.75;;;;;;;6.66;100.00;102049.19;10043816;28;20478;-70
2022/01/17 09:23:58;;;;;;;27.70;4.95;;;;;;;6.70;100.00;102072.06;10034102;29;20498;-70
2022/01/17 09:28:55;;;;;;;28.25;3.83;;;;;;;6.70;100.00;102066.63;10043106;28;20466;-70
2022/01/17 09:33:52;;;;;;;21.50;3.78;;;;;;;6.67;100.00;102099.75;10033494;28;20075;-70
2022/01/17 09:38:48;;;;;;;18.95;2.40;;;;;;;6.67;100.00;102116.06;10041786;28;20074;-70
2022/01/17 09:43:45;;;;;;;22.52;2.70;;;;;;;6.67;100.00;102121.50;10028465;29;20048;-70
2022/01/17 09:48:47;;;;;;;14.10;2.08;;;;;;;6.58;100.00;102144.78;10040218;28;20098;-70
2022/01/17 09:53:44;;;;;;;13.20;3.07;;;;;;;6.48;100.00;102140.88;10061099;29;20071;-70
2022/01/17 09:58:41;;;;;;;12.20;1.50;;;;;;;6.55;100.00;102151.56;10031479;28;20114;-70
2022/01/17 10:03:38;;;;;;;7.45;1.42;;;;;;;6.49;100.00;102175.13;10049505;29;20051;-70
2022/01/17 10:08:35;;;;;;;13.98;2.53;;;;;;;6.59;100.00;102138.25;10015237;28;20103;-70
2022/01/17 10:13:34;;;;;;;7.80;1.10;;;;;;;6.90;100.00;102164.66;10034532;28;20192;-70
2022/01/17 10:18:40;;;;;;;18.90;2.17;;;;;;;7.10;100.00;102174.94;10037837;28;20094;-70
2022/01/17 10:24:09;;;;;;;14.93;2.90;;;;;;;7.30;100.00;102171.53;10054738;28;20048;-70
2022/01/17 10:34:57;;;;;;;19.35;1.90;;;;;;;6.98;100.00;102200.63;10023230;29;20095;-69
2022/01/17 10:40:00;;;;;;;15.23;2.30;;;;;;;6.89;100.00;102217.44;10037713;29;20106;-70
2022/01/17 10:45:10;;;;;;;13.52;2.78;;;;;;;6.66;100.00;102223.13;10031201;29;20056;-69
2022/01/17 10:50:13;;;;;;;17.15;3.35;;;;;;;6.62;100.00;102222.00;10029100;29;20115;-70
2022/01/17 10:55:29;;;;;;;15.23;2.55;;;;;;;6.68;100.00;102238.13;10046188;28;20124;-69
2022/01/17 11:00:28;;;;;;;23.35;2.80;;;;;;;6.68;100.00;102272.63;10015875;28;20570;-69
2022/01/17 11:05:28;;;;;;;19.17;3.45;;;;;;;6.58;100.00;102264.34;10012943;28;20068;-69
2022/01/17 11:10:29;;;;;;;10.80;1.67;;;;;;;6.28;100.00;102288.16;10007059;28;20662;-69
2022/01/17 11:15:26;;;;;;;17.63;2.38;;;;;;;6.25;100.00;102296.00;10019353;28;20056;-69
2022/01/17 11:20:26;;;;;;;19.95;3.45;;;;;;;6.01;100.00;102336.91;10015923;28;20082;-69
2022/01/17 11:25:28;;;;;;;18.98;2.38;;;;;;;5.91;100.00;102309.56;10013583;28;20087;-69
2022/01/17 11:30:25;;;;;;;21.60;2.75;;;;;;;5.90;100.00;102324.22;10069089;28;20469;-69
2022/01/17 11:35:24;;;;;;;19.77;2.85;;;;;;;6.07;100.00;102325.03;10035898;28;20084;-69
2022/01/17 11:40:27;;;;;;;18.48;3.45;;;;;;;6.30;100.00;102296.06;10058382;29;20079;-69
2022/01/17 11:45:23;;;;;;;7.50;1.63;;;;;;;6.44;100.00;102346.25;10036520;28;22136;-69
2022/01/17 11:50:33;;;;;;;24.95;4.28;;;;;;;6.43;100.00;102382.66;10061073;29;20098;-69
2022/01/17 11:55:38;;;;;;;20.95;3.58;;;;;;;6.38;100.00;102374.41;10034995;28;20675;-69
2022/01/17 12:00:35;;;;;;;26.77;4.90;;;;;;;6.39;100.00;102351.59;10035013;28;20071;-69
2022/01/17 12:05:33;;;;;;;25.65;4.22;;;;;;;6.35;100.00;102353.16;10042234;28;20051;-69
2022/01/17 12:10:39;;;;;;;20.70;3.55;;;;;;;6.56;100.00;102362.44;10056613;28;20107;-69
2022/01/17 12:16:06;;;;;;;19.08;3.22;;;;;;;6.57;100.00;102382.28;10027290;29;20074;-69
2022/01/17 12:21:43;;;;;;;28.42;4.80;;;;;;;6.50;100.00;102356.13;10066645;28;20047;-69
2022/01/17 12:26:39;;;;;;;24.67;3.33;;;;;;;6.43;100.00;102377.22;10029703;28;20107;-70
2022/01/17 12:31:47;;;;;;;23.40;3.58;;;;;;;6.42;100.00;102396.47;10039747;29;20621;-68
2022/01/17 12:36:46;;;;;;;21.77;4.85;;;;;;;6.31;100.00;102425.38;10027493;28;20695;-69
2022/01/17 12:41:45;;;;;;;21.80;4.13;;;;;;;6.34;100.00;102416.75;10024186;28;20076;-69
2022/01/17 12:46:44;;;;;;;27.40;3.63;;;;;;;6.24;100.00;102432.84;10020311;28;20134;-69
2022/01/17 12:51:43;;;;;;;25.70;3.70;;;;;;;6.23;100.00;102434.75;10029701;28;20039;-69
2022/01/17 12:56:44;;;;;;;26.60;3.90;;;;;;;6.19;100.00;102438.22;10030657;28;20099;-70
2022/01/17 13:01:57;;;;;;;28.05;4.25;;;;;;;6.13;100.00;102448.19;10021470;28;20087;-70
2022/01/17 13:06:55;;;;;;;28.02;5.32;;;;;;;6.21;100.00;102449.66;10020580;28;20458;-69
2022/01/17 13:11:53;;;;;;;29.25;4.05;;;;;;;6.17;100.00;102464.78;10022542;28;20040;-69
2022/01/17 13:16:51;;;;;;;33.17;5.68;;;;;;;6.17;100.00;102478.38;10018709;28;20098;-67
2022/01/17 13:21:49;;;;;;;30.77;4.70;;;;;;;6.09;100.00;102453.25;10028661;28;20143;-70
2022/01/17 13:26:56;;;;;;;24.10;4.15;;;;;;;5.99;100.00;102482.16;10042196;28;20052;-70
2022/01/17 13:31:54;;;;;;;27.15;3.95;;;;;;;6.02;100.00;102474.31;10068278;28;20138;-70
2022/01/17 13:36:53;;;;;;;30.35;4.35;;;;;;;5.99;100.00;102480.25;10047296;28;20058;-70
2022/01/17 13:42:10;;;;;;;22.63;4.03;;;;;;;5.95;100.00;102502.69;10047980;29;20039;-67
2022/01/17 13:47:13;;;;;;;19.95;3.20;;;;;;;5.86;100.00;102491.38;10035633;28;20469;-66
2022/01/17 13:52:11;;;;;;;20.15;4.07;;;;;;;5.89;100.00;102515.31;10023476;28;20048;-70
2022/01/17 13:57:20;;;;;;;25.33;3.30;;;;;;;5.89;100.00;102556.88;10015544;28;20054;-68
2022/01/17 14:02:39;;;;;;;29.88;5.38;;;;;;;5.83;100.00;102546.16;10019911;28;20503;-68
2022/01/17 14:07:35;;;;;;;37.63;4.10;;;;;;;5.89;100.00;102553.31;10017718;28;20429;-68
2022/01/17 14:12:32;;;;;;;35.85;5.95;;;;;;;5.99;100.00;102564.44;10019191;28;20070;-68
2022/01/17 14:17:30;;;;;;;29.65;4.57;;;;;;;6.03;100.00;102578.31;10010383;28;20055;-68
2022/01/17 14:22:27;;;;;;;32.63;4.68;;;;;;;5.76;100.00;102567.19;10042928;28;20068;-67
2022/01/17 14:27:24;;;;;;;20.48;3.83;;;;;;;5.76;100.00;102561.75;10039269;28;20047;-68
2022/01/17 14:32:21;;;;;;;29.25;4.60;;;;;;;5.66;100.00;102549.63;10051594;28;20094;-67
2022/01/17 14:37:32;;;;;;;30.35;4.65;;;;;;;5.61;100.00;102582.06;10041315;28;20569;-67
2022/01/17 14:42:36;;;;;;;27.55;4.65;;;;;;;5.58;100.00;102615.09;10038260;29;20062;-68
2022/01/17 14:47:47;;;;;;;28.10;4.32;;;;;;;5.41;100.00;102625.03;10032730;28;20052;-67
2022/01/17 14:52:44;;;;;;;26.08;4.20;;;;;;;5.36;100.00;102624.91;10046851;28;20532;-67
2022/01/17 15:03:10;;;;;;;29.80;5.13;;;;;;;5.11;100.00;102647.66;10047275;28;20128;-69
2022/01/17 15:08:10;;;;;;;32.83;4.78;;;;;;;4.99;100.00;102660.34;10036497;28;20052;-69
2022/01/17 15:13:07;;;;;;;25.92;4.25;;;;;;;4.97;100.00;102662.50;10048323;28;20043;-69
2022/01/17 15:18:07;;;;;;;31.10;4.97;;;;;;;4.91;100.00;102679.69;10035006;29;20549;-70
2022/01/17 15:23:04;;;;;;;25.38;4.30;;;;;;;4.81;100.00;102697.31;10020012;28;20406;-69
2022/01/17 15:28:00;;;;;;;25.65;5.20;;;;;;;4.74;100.00;102715.56;10013864;28;20140;-69
2022/01/17 15:32:59;;;;;;;26.92;3.90;;;;;;;4.81;100.00;102719.00;10043645;28;20046;-69
2022/01/17 15:37:56;;;;;;;26.67;4.07;;;;;;;4.69;100.00;102726.28;10014903;28;20495;-69
2022/01/17 15:42:54;;;;;;;26.23;4.00;;;;;;;4.63;100.00;102735.31;10011783;28;20058;-68
2022/01/17 15:47:50;;;;;;;28.67;5.63;;;;;;;4.60;100.00;102750.13;10021383;28;20076;-66
2022/01/17 15:52:47;;;;;;;26.60;3.88;;;;;;;4.54;100.00;102761.06;10023747;28;20043;-68
2022/01/17 15:57:44;;;;;;;37.28;4.80;;;;;;;4.47;100.00;102766.53;10016968;28;20094;-69
2022/01/17 16:02:41;;;;;;;32.55;5.20;;;;;;;4.50;100.00;102776.09;10046819;28;20651;-70
2022/01/17 16:07:42;;;;;;;37.38;4.75;;;;;;;4.46;100.00;102791.16;10044033;28;20047;-70
2022/01/17 16:12:40;;;;;;;27.10;4.95;;;;;;;4.32;100.00;102807.56;10023679;29;20482;-69
2022/01/17 16:17:38;;;;;;;29.35;5.38;;;;;;;4.35;100.00;102827.94;10036990;28;20051;-69
2022/01/17 16:22:38;;;;;;;30.67;4.63;;;;;;;4.30;100.00;102820.50;10037620;28;20047;-70
2022/01/17 16:27:39;;;;;;;33.83;6.05;;;;;;;4.24;100.00;102829.50;10036144;28;20056;-69
2022/01/17 16:32:36;;;;;;;26.95;4.53;;;;;;;4.19;100.00;102841.00;10023093;29;20113;-70
2022/01/17 16:37:32;;;;;;;34.53;4.82;;;;;;;4.13;100.00;102838.34;10043291;28;20653;-70
2022/01/17 16:42:34;;;;;;;33.80;4.82;;;;;;;4.17;100.00;102847.69;10058003;29;20048;-70
2022/01/17 16:47:31;;;;;;;30.70;6.47;;;;;;;4.12;100.00;102866.50;10034431;28;20488;-70
2022/01/17 16:52:27;;;;;;;34.90;5.35;;;;;;;4.12;100.00;102871.91;10076517;28;20743;-70
2022/01/17 16:57:24;;;;;;;25.65;4.65;;;;;;;4.04;100.00;102874.88;10032175;28;20082;-69
2022/01/17 17:02:21;;;;;;;41.67;5.75;;;;;;;3.93;100.00;102868.31;10033445;28;20094;-70
2022/01/17 17:07:18;;;;;;;33.75;6.43;;;;;;;3.89;100.00;102884.16;10047537;28;20052;-70
2022/01/17 17:12:15;;;;;;;22.15;3.85;;;;;;;3.89;100.00;102889.56;10048029;29;20044;-70
2022/01/17 17:17:14;;;;;;;32.50;5.32;;;;;;;3.77;100.00;102912.97;10033415;28;20047;-70
2022/01/17 17:22:14;;;;;;;38.22;5.68;;;;;;;3.76;100.00;102916.72;10035059;29;20106;-69
2022/01/17 17:27:11;;;;;;;41.85;7.75;;;;;;;3.74;100.00;102924.25;10040277;28;20060;-69
2022/01/17 17:32:08;;;;;;;44.13;5.55;;;;;;;3.67;100.00;102939.69;10031074;28;20044;-69
2022/01/17 17:37:05;;;;;;;33.70;5.78;;;;;;;3.65;100.00;102942.59;10025183;28;20477;-67
2022/01/17 17:42:02;;;;;;;38.03;6.57;;;;;;;3.54;100.00;102948.69;10027045;28;20091;-70
2022/01/17 17:46:59;;;;;;;27.48;6.90;;;;;;;3.59;100.00;102960.50;10034940;28;20110;-70
2022/01/17 17:51:55;;;;;;;32.35;5.03;;;;;;;3.53;100.00;102972.22;10015868;28;20697;-69
2022/01/17 17:56:52;;;;;;;37.53;6.50;;;;;;;3.52;100.00;102975.94;10025943;28;20466;-69
2022/01/17 18:01:50;;;;;;;32.03;5.60;;;;;;;3.51;100.00;102985.13;10021531;28;20051;-69
2022/01/17 18:06:57;;;;;;;37.15;7.28;;;;;;;3.48;100.00;102984.72;10018199;28;20051;-68
2022/01/17 18:11:54;;;;;;;36.95;6.03;;;;;;;3.46;100.00;102998.47;10026815;28;20091;-69
2022/01/17 18:16:51;;;;;;;25.90;4.35;;;;;;;3.49;100.00;103006.16;10027311;28;20055;-69
2022/01/17 18:21:48;;;;;;;35.38;7.00;;;;;;;3.46;100.00;103012.00;10013673;29;20092;-68
2022/01/17 18:26:47;;;;;;;29.98;7.03;;;;;;;3.40;100.00;103012.84;10021864;29;20510;-68
2022/01/17 18:31:44;;;;;;;40.47;5.00;;;;;;;3.28;100.00;103012.66;10036665;28;20605;-69
2022/01/17 18:36:40;;;;;;;36.38;6.35;;;;;;;3.33;100.00;103020.97;10037172;29;20071;-69
2022/01/17 18:41:37;;;;;;;31.92;4.53;;;;;;;3.29;100.00;103024.31;10045685;29;20075;-69
2022/01/17 18:46:33;;;;;;;32.40;4.97;;;;;;;3.28;100.00;103017.25;10024329;28;20127;-68
2022/01/17 18:51:32;;;;;;;41.38;6.65;;;;;;;3.24;100.00;103016.00;10034875;28;20062;-69
2022/01/17 18:56:29;;;;;;;37.25;7.50;;;;;;;3.25;100.00;103006.84;10030245;28;20079;-68
2022/01/17 19:01:27;;;;;;;37.58;6.82;;;;;;;3.08;100.00;103012.69;10058804;28;20137;-68
2022/01/17 19:06:24;;;;;;;41.88;5.38;;;;;;;3.06;100.00;103012.06;10034684;28;20127;-70
2022/01/17 19:11:20;;;;;;;32.05;5.03;;;;;;;3.07;100.00;103021.03;10055861;28;20517;-69
2022/01/17 19:16:17;;;;;;;40.42;5.28;;;;;;;3.07;100.00;103037.25;10047823;28;20055;-69
2022/01/17 19:21:56;;;;;;;29.70;6.18;;;;;;;3.03;100.00;103046.81;10043389;28;20071;-69
2022/01/17 19:26:35;;;;;;;29.75;4.93;;;;;;;3.09;100.00;103046.81;10020444;28;20481;-69
2022/01/17 19:31:33;;;;;;;38.45;5.57;;;;;;;3.11;100.00;103043.88;10047350;28;20048;-69
2022/01/17 19:36:29;;;;;;;39.33;4.65;;;;;;;3.01;100.00;103055.13;10038888;28;20132;-68
2022/01/17 19:41:27;;;;;;;30.15;4.95;;;;;;;2.95;100.00;103056.00;10045723;28;20421;-68
2022/01/17 19:46:25;;;;;;;25.90;4.45;;;;;;;3.02;100.00;103062.22;10039083;28;20051;-69
2022/01/17 19:51:23;;;;;;;42.83;7.18;;;;;;;2.99;100.00;103078.84;10038329;28;20087;-69
2022/01/17 19:56:20;;;;;;;34.10;6.30;;;;;;;2.99;100.00;103092.34;10031958;28;20103;-68
2022/01/17 20:01:17;;;;;;;33.92;6.32;;;;;;;2.97;100.00;103102.56;10021101;28;20072;-69
2022/01/17 20:06:16;;;;;;;40.42;6.28;;;;;;;2.98;100.00;103133.09;10034600;28;20498;-69
2022/01/17 20:11:15;;;;;;;31.52;4.20;;;;;;;3.00;100.00;103136.44;10045985;29;20529;-69
2022/01/17 20:16:13;;;;;;;18.30;3.70;;;;;;;2.99;100.00;103149.09;10056428;28;20051;-68
2022/01/17 20:21:10;;;;;;;26.80;4.10;;;;;;;3.07;100.00;103154.31;10073326;28;20067;-69
2022/01/17 20:26:07;;;;;;;32.40;5.25;;;;;;;3.03;100.00;103158.47;10035302;28;20047;-69
2022/01/17 20:31:04;;;;;;;27.45;4.35;;;;;;;3.10;100.00;103156.59;10042284;29;20058;-68
2022/01/17 20:36:01;;;;;;;30.02;3.75;;;;;;;3.14;100.00;103149.75;10017293;29;20051;-70
2022/01/17 20:40:58;;;;;;;26.58;3.50;;;;;;;3.14;100.00;103163.25;10006331;29;20833;-67
2022/01/17 20:45:59;;;;;;;21.52;3.70;;;;;;;3.14;100.00;103171.38;10014205;29;20531;-70
2022/01/17 20:50:57;;;;;;;24.30;4.10;;;;;;;3.25;100.00;103171.78;10019808;28;20563;-66
2022/01/17 20:55:54;;;;;;;24.77;5.63;;;;;;;3.29;100.00;103164.91;10030056;28;20127;-66
2022/01/17 21:00:50;;;;;;;30.67;6.82;;;;;;;3.31;100.00;103179.06;10034382;29;20055;-67
2022/01/17 21:05:47;;;;;;;31.92;5.43;;;;;;;3.30;100.00;103177.41;10015452;29;20051;-66
2022/01/17 21:10:44;;;;;;;25.25;4.28;;;;;;;3.37;100.00;103170.94;10034572;28;20418;-66
2022/01/17 21:15:40;;;;;;;25.40;3.90;;;;;;;3.38;100.00;103175.31;10041969;29;20103;-66
2022/01/17 21:20:37;;;;;;;25.67;4.65;;;;;;;3.50;100.00;103189.03;10073271;28;20052;-66
2022/01/17 21:25:34;;;;;;;31.25;5.50;;;;;;;3.56;100.00;103190.91;10048729;28;20569;-66
2022/01/17 21:30:30;;;;;;;35.65;5.15;;;;;;;3.59;100.00;103182.34;10076010;28;20102;-67
2022/01/17 21:35:27;;;;;;;27.85;3.78;;;;;;;3.59;100.00;103185.06;10050298;28;20051;-66
2022/01/17 21:40:23;;;;;;;28.88;4.55;;;;;;;3.62;100.00;103185.69;10058460;29;20066;-66
2022/01/17 21:45:20;;;;;;;28.08;5.38;;;;;;;3.68;100.00;103198.38;10039147;28;20486;-66
2022/01/17 21:50:16;;;;;;;25.40;4.53;;;;;;;3.71;100.00;103214.19;10071379;28;20059;-66
2022/01/17 21:55:14;;;;;;;26.35;4.68;;;;;;;3.72;100.00;103213.97;10042493;28;20286;-67
2022/01/17 22:00:13;;;;;;;31.55;4.85;;;;;;;3.76;100.00;103215.22;10068239;28;20082;-67
2022/01/17 22:05:13;;;;;;;;;;;;;;;3.83;100.00;103226.03;10045182;28;20047;-65
2022/01/17 22:10:10;;;;;;;29.80;5.13;;;;;;;3.80;100.00;103215.63;10066610;28;19966;-65
2022/01/17 22:15:07;;;;;;;40.22;5.53;;;;;;;3.91;100.00;103222.28;10048566;28;20470;-65
2022/01/17 22:20:05;;;;;;;25.02;4.05;;;;;;;4.00;100.00;103221.84;10062352;28;20075;-65
2022/01/17 22:25:01;;;;;;;35.17;5.18;;;;;;;3.99;100.00;103198.53;10032028;29;20070;-66
2022/01/17 22:29:58;;;;;;;30.55;5.82;;;;;;;4.09;100.00;103208.06;10009070;29;20044;-66
2022/01/17 22:34:54;;;;;;;30.65;6.32;;;;;;;4.13;100.00;103215.56;10024964;29;20103;-66
2022/01/17 22:39:50;;;;;;;29.98;6.85;;;;;;;4.24;100.00;103224.88;10035652;28;20554;-66
2022/01/17 22:44:47;;;;;;;30.05;5.50;;;;;;;4.26;100.00;103230.91;10040892;28;20055;-66
2022/01/17 22:49:45;;;;;;;20.95;3.75;;;;;;;4.20;100.00;103234.47;10035450;28;20063;-66
2022/01/17 22:54:43;;;;;;;27.40;3.72;;;;;;;4.29;100.00;103229.66;10030764;29;20049;-66
2022/01/17 22:59:39;;;;;;;37.95;6.50;;;;;;;4.32;100.00;103229.25;10046573;28;20139;-66